Main page
METAR-TAF:

METAR-TAF

Airports :

Turin, Italy

Turin Airport

latitude: 45-13N, longitude: 007-39E, elevation: 301 m

Current weather observation

The report was made 39 minutes ago, at 01:20 UTC
Wind 1 kt from variable directions
Temperature 15°C
Humidity 55%
Pressure 1022 hPa
Visibility 10 km or more
no clouds below 1500 m and no cumulonimbus

METAR: LIMF 210120Z VRB01KT CAVOK 15/06 Q1022

Time: 03:59 (01:59 UTC)

Forecast

The report was made 2 hours and 59 minutes ago, at 23:00 UTC
Forecast valid from 21 at 00 UTC to 21 at 24 UTC
Wind 5 kt from variable directions
Visibility 10 km or more
no clouds below 1500 m and no cumulonimbus

TAF: LIMF 202300Z 2100/2124 VRB05KT CAVOK

Weather observations and forecasts of more than 4000 airports (METAR and TAF reports).

The available stations are represented by yellow and red dots on the map.

Hover mouse over dot to see the name of the station.

Then click to see weather observations and forecasts.

To change the map : click on the green buttons with a black cross to zoom in, on the green button with a dash to zoom out, or on the green arrows for adjacent maps.


METAR-TAF: